Time;durP1;ratioP1;P1;durP2;ratioP2;P2;SDS_P1;SDS_P2;PMS_P1;PMS_P2;Temp;Humidity;BMP_temperature;BMP_pressure;BME280_temperature;BME280_humidity;BME280_pressure;Samples;Min_cycle;Max_cycle;Signal;HPM_P1;HPM_P2
2022/04/24 00:00:49;;;;;;;43.00;28.80;;;;;;;9.34;86.89;100460.89;107261;1257;69984;-74
2022/04/24 00:03:19;;;;;;;42.40;28.40;;;;;;;9.31;86.80;100462.94;106911;1256;69746;-72
2022/04/24 00:05:48;;;;;;;44.10;30.40;;;;;;;9.32;87.06;100462.05;106792;1256;71006;-75
2022/04/24 00:08:17;;;;;;;40.20;27.70;;;;;;;9.31;87.28;100461.95;106826;1254;59568;-71
2022/04/24 00:10:46;;;;;;;41.50;28.00;;;;;;;9.32;87.08;100464.84;106962;1257;60546;-71
2022/04/24 00:13:15;;;;;;;40.40;28.40;;;;;;;9.32;87.38;100463.61;106855;1257;75215;-73
2022/04/24 00:15:43;;;;;;;40.70;29.60;;;;;;;9.34;87.13;100466.44;106966;1256;72140;-71
2022/04/24 00:18:13;;;;;;;43.60;29.00;;;;;;;9.35;87.79;100465.51;106894;1255;71541;-71
2022/04/24 00:20:44;;;;;;;40.50;26.90;;;;;;;9.38;87.08;100464.41;106845;1255;73197;-69
2022/04/24 00:23:13;;;;;;;38.60;26.60;;;;;;;9.46;85.87;100459.85;106672;1257;62660;-68
2022/04/24 00:25:42;;;;;;;40.00;26.60;;;;;;;9.39;86.26;100464.16;106886;1255;61595;-70
2022/04/24 00:28:12;;;;;;;42.90;27.70;;;;;;;9.43;85.72;100468.92;106885;1257;72583;-71
2022/04/24 00:30:41;;;;;;;43.50;27.60;;;;;;;9.44;85.56;100469.55;106914;1255;72264;-70
2022/04/24 00:33:09;;;;;;;43.10;25.40;;;;;;;9.40;85.56;100470.67;106934;1256;69943;-71
2022/04/24 00:35:38;;;;;;;41.60;26.70;;;;;;;9.39;85.76;100464.29;106881;1256;73149;-72
2022/04/24 00:38:07;;;;;;;40.10;27.60;;;;;;;9.38;86.63;100469.77;106766;1257;61633;-71
2022/04/24 00:40:36;;;;;;;41.30;27.70;;;;;;;9.42;86.44;100473.48;106748;1257;59582;-73
2022/04/24 00:43:05;;;;;;;39.90;26.40;;;;;;;9.44;86.77;100470.55;107024;1256;73618;-74
2022/04/24 00:46:12;;;;;;;39.00;26.00;;;;;;;9.46;86.56;100469.17;106808;1256;70695;-74
2022/04/24 00:48:43;;;;;;;41.30;27.60;;;;;;;9.47;86.49;100471.70;106924;1256;68561;-73
2022/04/24 00:51:12;;;;;;;45.60;29.40;;;;;;;9.50;86.11;100473.60;106886;1257;70511;-74
2022/04/24 00:53:41;;;;;;;41.40;28.10;;;;;;;9.49;86.20;100469.85;106667;1257;61261;-75
2022/04/24 00:56:11;;;;;;;42.00;28.80;;;;;;;9.46;86.41;100467.46;106728;1257;60805;-75
2022/04/24 00:58:41;;;;;;;39.30;27.90;;;;;;;9.51;86.32;100461.73;106818;1256;73886;-75
2022/04/24 01:01:10;;;;;;;40.70;27.20;;;;;;;9.52;85.71;100466.84;106672;1257;72707;-76
2022/04/24 01:03:39;;;;;;;39.90;25.10;;;;;;;9.53;85.19;100473.39;106639;1257;69651;-75
2022/04/24 01:06:08;;;;;;;42.50;27.70;;;;;;;9.69;84.95;100479.70;106762;1256;74658;-76
2022/04/24 01:08:36;;;;;;;42.90;28.00;;;;;;;9.67;84.37;100485.95;106685;1257;63465;-74
2022/04/24 01:11:05;;;;;;;46.30;29.80;;;;;;;9.55;84.81;100489.61;106731;1256;59548;-70
2022/04/24 01:13:34;;;;;;;44.20;29.30;;;;;;;9.53;84.68;100485.16;106620;1257;73193;-73
2022/04/24 01:16:03;;;;;;;46.40;29.70;;;;;;;9.51;85.10;100469.36;106731;1257;72412;-71
2022/04/24 01:18:33;;;;;;;44.90;29.40;;;;;;;9.50;85.04;100469.27;106797;1257;69088;-73
2022/04/24 01:21:09;;;;;;;41.70;28.70;;;;;;;9.49;85.55;100470.59;106793;1257;73447;-77
2022/04/24 01:23:38;;;;;;;42.40;27.00;;;;;;;9.54;85.60;100475.71;106471;1257;61933;-74
2022/04/24 01:26:07;;;;;;;41.90;28.50;;;;;;;9.58;85.51;100476.89;106724;1256;59499;-75
2022/04/24 01:28:36;;;;;;;42.00;27.60;;;;;;;9.61;85.44;100478.69;106544;1257;73177;-78
2022/04/24 01:31:05;;;;;;;43.10;28.40;;;;;;;9.65;85.12;100478.96;106850;1256;68617;-77
2022/04/24 01:33:34;;;;;;;43.10;28.20;;;;;;;9.62;85.11;100476.27;106732;1257;67961;-72
2022/04/24 01:36:04;;;;;;;39.30;27.80;;;;;;;9.63;85.21;100480.66;106710;1256;74062;-71
2022/04/24 01:38:33;;;;;;;40.80;27.50;;;;;;;9.61;85.82;100483.80;106780;1257;63407;-74
2022/04/24 01:41:02;;;;;;;40.40;28.10;;;;;;;9.63;85.51;100486.23;106720;1257;59490;-72
2022/04/24 01:43:31;;;;;;;43.90;29.30;;;;;;;9.62;85.42;100483.53;106787;1256;72499;-72
2022/04/24 01:46:00;;;;;;;43.80;29.30;;;;;;;9.61;85.43;100480.25;106714;1256;71205;-72
2022/04/24 01:48:30;;;;;;;39.30;27.70;;;;;;;9.62;85.24;100480.56;106708;1256;69575;-73
2022/04/24 01:51:01;;;;;;;43.50;28.20;;;;;;;9.63;85.44;100480.67;106645;1257;73935;-72
2022/04/24 01:53:30;;;;;;;44.80;29.00;;;;;;;9.64;85.41;100487.59;106625;1257;64007;-71
2022/04/24 01:56:01;;;;;;;42.80;28.40;;;;;;;9.64;85.26;100489.78;106614;1257;62149;-72
2022/04/24 01:58:30;;;;;;;43.20;29.20;;;;;;;9.63;85.44;100491.27;106513;1257;75314;-72
2022/04/24 02:00:59;;;;;;;45.10;29.40;;;;;;;9.64;85.56;100487.77;106393;1257;72301;-73
2022/04/24 02:03:30;;;;;;;44.40;28.60;;;;;;;9.67;85.28;100478.67;106531;1257;69315;-73
2022/04/24 02:06:00;;;;;;;46.20;29.30;;;;;;;9.61;85.25;100472.61;106734;1255;75364;-75
2022/04/24 02:08:31;;;;;;;44.50;28.20;;;;;;;9.60;85.92;100481.55;106607;1257;61747;-72
2022/04/24 02:11:02;;;;;;;45.80;29.10;;;;;;;9.64;85.35;100480.61;106730;1256;60533;-74
2022/04/24 02:13:31;;;;;;;43.80;28.40;;;;;;;9.62;85.28;100478.98;106751;1257;75094;-74
2022/04/24 02:16:01;;;;;;;45.00;29.00;;;;;;;9.62;85.11;100478.12;106663;1257;70539;-71
2022/04/24 02:18:30;;;;;;;46.20;28.00;;;;;;;9.63;85.29;100472.52;106745;1256;69696;-71
2022/04/24 02:20:59;;;;;;;44.50;29.50;;;;;;;9.62;85.46;100471.86;106740;1255;74807;-73
2022/04/24 02:23:28;;;;;;;46.30;29.50;;;;;;;9.59;85.64;100472.94;106734;1255;61355;-73
2022/04/24 02:25:57;;;;;;;43.10;29.10;;;;;;;9.61;85.74;100471.98;106620;1255;61411;-74
2022/04/24 02:28:26;;;;;;;49.70;30.40;;;;;;;9.60;86.03;100464.73;106532;1257;74212;-73
2022/04/24 02:30:54;;;;;;;45.40;30.50;;;;;;;9.51;86.23;100465.14;106689;1257;73007;-71
2022/04/24 02:33:23;;;;;;;45.40;29.20;;;;;;;9.49;86.56;100464.84;106707;1255;70217;-73
2022/04/24 02:35:52;;;;;;;47.20;28.80;;;;;;;9.52;86.46;100465.13;106652;1256;72000;-72
2022/04/24 02:38:21;;;;;;;43.20;28.80;;;;;;;9.57;85.87;100471.88;106592;1257;63109;-72
2022/04/24 02:40:50;;;;;;;44.30;29.40;;;;;;;9.61;85.88;100477.01;106747;1256;60730;-73
2022/04/24 02:43:19;;;;;;;43.10;29.10;;;;;;;9.61;85.60;100479.27;106747;1257;75963;-73
2022/04/24 02:45:48;;;;;;;43.20;29.00;;;;;;;9.56;85.39;100490.34;106783;1256;73739;-74
2022/04/24 02:48:16;;;;;;;44.20;29.00;;;;;;;9.51;85.21;100493.88;106200;1255;742625;-73
2022/04/24 02:50:45;;;;;;;42.60;28.90;;;;;;;9.48;86.05;100495.80;106659;1257;72093;-74
2022/04/24 02:53:15;;;;;;;44.60;29.80;;;;;;;9.49;85.84;100502.69;106678;1257;61293;-74
2022/04/24 02:55:43;;;;;;;46.90;29.70;;;;;;;9.47;85.48;100505.98;106708;1255;61306;-75
2022/04/24 02:58:12;;;;;;;45.00;28.60;;;;;;;9.46;85.62;100507.98;106685;1257;74618;-71
2022/04/24 03:00:43;;;;;;;43.40;28.70;;;;;;;9.46;86.05;100510.88;106720;1257;72086;-70
2022/04/24 03:03:12;;;;;;;49.10;29.40;;;;;;;9.49;86.39;100510.86;106797;1257;67993;-71
2022/04/24 03:05:41;;;;;;;48.50;29.80;;;;;;;9.53;86.12;100508.48;106529;1257;71651;-73
2022/04/24 03:08:17;;;;;;;44.60;30.20;;;;;;;9.56;86.08;100510.91;106823;1256;62283;-75
2022/04/24 03:10:46;;;;;;;47.00;29.70;;;;;;;9.57;86.06;100509.79;106820;1256;60963;-73
2022/04/24 03:13:14;;;;;;;48.00;30.70;;;;;;;9.58;86.06;100509.35;106765;1256;74910;-74
2022/04/24 03:15:43;;;;;;;44.70;30.00;;;;;;;9.57;85.64;100511.18;106561;1257;71932;-72
2022/04/24 03:18:12;;;;;;;46.80;30.20;;;;;;;9.57;85.85;100512.07;106551;1257;68573;-72
2022/04/24 03:20:41;;;;;;;45.70;29.80;;;;;;;9.65;85.59;100510.39;106759;1256;72955;-70
2022/04/24 03:23:10;;;;;;;45.60;29.00;;;;;;;9.71;85.36;100518.34;106767;1256;60653;-72
2022/04/24 03:25:39;;;;;;;47.80;30.10;;;;;;;9.75;84.98;100520.46;106653;1257;59580;-73
2022/04/24 03:28:09;;;;;;;42.00;28.80;;;;;;;9.78;85.02;100519.78;106892;1257;72959;-71
2022/04/24 03:30:38;;;;;;;43.70;28.30;;;;;;;9.80;84.66;100517.99;107395;1257;72279;-72
2022/04/24 03:33:07;;;;;;;46.90;29.10;;;;;;;9.84;84.31;100522.45;107185;1257;70340;-76
2022/04/24 03:35:36;;;;;;;50.40;30.10;;;;;;;9.86;84.29;100524.21;106777;1256;74210;-74
2022/04/24 03:38:05;;;;;;;48.10;29.00;;;;;;;9.86;84.30;100531.52;106780;1257;63904;-74
2022/04/24 03:40:34;;;;;;;47.90;30.40;;;;;;;9.87;84.21;100529.22;106752;1256;60227;-72
2022/04/24 03:43:03;;;;;;;45.90;28.90;;;;;;;9.92;84.17;100529.67;106714;1256;74310;-75
2022/04/24 03:45:32;;;;;;;50.20;28.90;;;;;;;9.94;84.10;100523.63;106768;1257;71234;-72
2022/04/24 03:48:01;;;;;;;47.40;29.70;;;;;;;9.92;84.84;100526.56;106542;1255;70259;-72
2022/04/24 03:50:30;;;;;;;47.10;29.60;;;;;;;9.92;84.39;100530.80;106544;1257;72947;-72
2022/04/24 03:52:59;;;;;;;44.50;29.50;;;;;;;9.94;83.75;100533.55;106552;1257;63562;-74
2022/04/24 03:55:29;;;;;;;48.20;30.80;;;;;;;9.99;84.04;100536.70;106648;1257;60717;-74
2022/04/24 03:57:58;;;;;;;48.30;31.20;;;;;;;10.07;83.03;100539.56;106625;1256;75035;-74
2022/04/24 04:00:26;;;;;;;49.00;32.10;;;;;;;10.06;83.03;100536.68;106581;1256;72035;-73
2022/04/24 04:02:55;;;;;;;52.70;32.30;;;;;;;10.04;83.03;100542.36;106661;1257;68533;-73
2022/04/24 04:05:24;;;;;;;50.60;31.90;;;;;;;10.12;82.65;100542.89;106581;1257;71732;-74
2022/04/24 04:07:53;;;;;;;55.70;31.10;;;;;;;10.20;82.78;100545.75;106650;1257;61419;-77
2022/04/24 04:10:22;;;;;;;47.40;30.60;;;;;;;10.29;82.76;100552.44;106431;1257;59512;-76
2022/04/24 04:12:51;;;;;;;46.50;29.30;;;;;;;10.36;81.78;100547.38;106695;1257;72201;-75
2022/04/24 04:15:20;;;;;;;47.90;30.10;;;;;;;10.35;81.21;100552.54;106677;1257;70419;-73
2022/04/24 04:17:52;;;;;;;47.00;29.20;;;;;;;10.38;80.52;100549.02;106703;1257;70559;-73
2022/04/24 04:20:21;;;;;;;45.10;29.10;;;;;;;10.36;80.49;100553.49;106416;1257;73605;-76
2022/04/24 04:22:51;;;;;;;44.50;28.60;;;;;;;10.38;80.38;100553.19;106580;1257;60633;-75
2022/04/24 04:25:25;;;;;;;44.20;28.90;;;;;;;10.43;80.41;100556.46;106606;1257;61377;-74
2022/04/24 04:27:54;;;;;;;46.20;29.30;;;;;;;10.55;80.24;100557.48;106863;1256;74700;-73
2022/04/24 04:30:22;;;;;;;48.20;30.10;;;;;;;10.64;80.06;100555.61;106928;1257;72350;-75
2022/04/24 04:32:52;;;;;;;46.10;30.40;;;;;;;10.71;79.66;100560.84;106670;1258;70362;-74
2022/04/24 04:35:23;;;;;;;44.60;29.90;;;;;;;10.76;79.34;100568.76;106576;1257;74648;-75
2022/04/24 04:37:53;;;;;;;46.70;29.10;;;;;;;10.91;80.23;100580.21;106645;1256;61331;-73
2022/04/24 04:40:22;;;;;;;51.10;28.70;;;;;;;10.93;79.92;100584.39;106775;1255;61002;-76
2022/04/24 04:42:51;;;;;;;44.60;27.90;;;;;;;10.95;79.81;100591.55;106719;1256;71639;-75
2022/04/24 04:45:20;;;;;;;38.60;23.90;;;;;;;10.89;80.15;100592.54;106708;1256;72661;-73
2022/04/24 04:47:49;;;;;;;42.90;26.80;;;;;;;10.96;79.44;100596.41;106617;1256;70803;-76
2022/04/24 04:50:18;;;;;;;44.30;27.60;;;;;;;10.84;79.22;100599.84;106590;1257;74046;-74
2022/04/24 04:52:47;;;;;;;47.30;28.90;;;;;;;10.86;79.37;100599.21;106626;1257;59691;-73
2022/04/24 04:55:16;;;;;;;47.10;28.50;;;;;;;10.90;79.50;100604.51;106531;1257;59157;-74
2022/04/24 04:57:46;;;;;;;46.60;29.80;;;;;;;10.86;79.45;100605.98;106657;1257;71980;-74
2022/04/24 05:00:16;;;;;;;46.90;29.70;;;;;;;10.75;79.92;100607.20;106472;1257;72468;-72
2022/04/24 05:02:45;;;;;;;48.50;28.70;;;;;;;10.68;80.71;100614.13;106591;1256;70811;-73
2022/04/24 05:05:14;;;;;;;43.80;26.80;;;;;;;10.79;80.49;100613.68;106693;1257;72511;-75
2022/04/24 05:07:43;;;;;;;46.10;29.50;;;;;;;10.92;79.82;100611.66;106842;1256;60535;-73
2022/04/24 05:10:12;;;;;;;47.90;30.00;;;;;;;10.79;80.28;100610.15;106504;1257;60590;-72
2022/04/24 05:12:41;;;;;;;39.70;26.30;;;;;;;10.82;80.23;100608.05;106520;1257;74939;-72
2022/04/24 05:15:13;;;;;;;41.80;27.00;;;;;;;10.82;80.08;100607.52;106807;1256;73186;-75
2022/04/24 05:17:43;;;;;;;46.90;29.30;;;;;;;10.79;80.46;100609.15;106877;1257;69358;-75
2022/04/24 05:20:12;;;;;;;40.80;26.30;;;;;;;10.74;80.42;100615.42;106668;1257;74468;-77
2022/04/24 05:22:41;;;;;;;41.00;26.10;;;;;;;10.75;80.75;100614.33;106777;1257;62861;-75
2022/04/24 05:25:12;;;;;;;40.60;25.00;;;;;;;10.86;80.04;100619.57;106679;1257;59603;-73
2022/04/24 05:27:41;;;;;;;43.10;25.90;;;;;;;10.86;79.68;100618.71;107041;1256;72799;-74
2022/04/24 05:30:11;;;;;;;44.50;27.20;;;;;;;10.79;79.61;100622.77;107135;1257;70707;-75
2022/04/24 05:32:50;;;;;;;42.60;26.20;;;;;;;10.74;80.09;100615.29;107276;1256;70605;-73
2022/04/24 05:35:19;;;;;;;40.40;26.10;;;;;;;10.75;80.03;100625.30;106940;1256;73392;-73
2022/04/24 05:37:48;;;;;;;47.70;28.40;;;;;;;10.78;80.11;100626.46;107119;1256;62675;-74
2022/04/24 05:40:17;;;;;;;40.60;24.80;;;;;;;10.86;80.09;100624.80;107034;1257;61669;-75
2022/04/24 05:42:54;;;;;;;44.20;27.30;;;;;;;11.06;79.56;100625.58;106873;1257;72281;-75
2022/04/24 05:45:27;;;;;;;42.50;28.20;;;;;;;11.10;79.56;100620.75;106968;1257;72670;-74
2022/04/24 05:47:56;;;;;;;46.50;28.60;;;;;;;11.22;79.18;100615.48;107214;1256;71560;-69
2022/04/24 05:50:25;;;;;;;43.70;30.00;;;;;;;11.27;78.53;100608.14;106913;1257;74686;-78
2022/04/24 05:52:56;;;;;;;48.50;30.00;;;;;;;11.43;78.12;100610.88;107007;1257;60111;-73
2022/04/24 05:55:25;;;;;;;51.70;31.50;;;;;;;11.68;77.57;100617.16;106883;1257;59827;-74
2022/04/24 05:57:54;;;;;;;47.20;29.40;;;;;;;11.79;76.70;100618.55;106915;1257;72949;-76
2022/04/24 06:00:24;;;;;;;44.50;28.40;;;;;;;11.87;76.44;100617.97;106925;1256;73081;-77
2022/04/24 06:02:54;;;;;;;38.60;26.50;;;;;;;11.99;74.90;100618.72;106935;1257;70365;-80
2022/04/24 06:05:23;;;;;;;39.50;27.60;;;;;;;11.75;74.76;100618.32;106980;1256;71847;-75
2022/04/24 06:07:52;;;;;;;38.10;25.80;;;;;;;11.88;74.84;100614.87;106854;1256;60922;-74
2022/04/24 06:10:21;;;;;;;33.90;24.80;;;;;;;12.11;72.71;100618.45;106795;1255;60671;-75
2022/04/24 06:12:53;;;;;;;37.30;24.40;;;;;;;12.34;73.39;100618.88;106789;1257;72520;-78
2022/04/24 06:15:25;;;;;;;39.10;26.30;;;;;;;12.25;72.25;100611.02;107255;1255;71091;-75
2022/04/24 06:17:57;;;;;;;39.60;26.00;;;;;;;12.24;72.35;100608.50;107066;1256;68276;-73
2022/04/24 06:20:28;;;;;;;36.70;23.00;;;;;;;12.47;71.32;100613.79;107296;1257;72419;-75
2022/04/24 06:22:59;;;;;;;37.50;25.60;;;;;;;12.54;71.61;100616.58;106854;1256;62280;-75
2022/04/24 06:25:32;;;;;;;38.30;25.60;;;;;;;12.67;71.50;100614.45;106990;1257;60515;-78
2022/04/24 06:28:03;;;;;;;34.10;23.40;;;;;;;12.92;70.62;100614.98;107549;1256;73744;-74
2022/04/24 06:30:35;;;;;;;38.30;25.30;;;;;;;13.10;69.99;100622.23;107067;1257;71148;-77
2022/04/24 06:33:11;;;;;;;36.00;25.30;;;;;;;12.84;69.31;100624.38;107314;1256;68736;-73
2022/04/24 06:35:41;;;;;;;32.60;24.50;;;;;;;12.88;68.91;100620.50;107417;1256;70995;-75
2022/04/24 06:38:10;;;;;;;36.70;24.60;;;;;;;12.95;68.27;100616.78;107065;1257;59769;-75
2022/04/24 06:40:39;;;;;;;36.30;25.20;;;;;;;12.91;67.82;100619.77;107022;1256;59579;-72
2022/04/24 06:43:09;;;;;;;33.90;21.20;;;;;;;12.87;68.85;100622.71;106782;1257;74318;-74
2022/04/24 06:45:41;;;;;;;35.30;24.70;;;;;;;12.79;68.33;100622.35;106945;1256;72274;-75
2022/04/24 06:48:15;;;;;;;39.00;26.10;;;;;;;12.96;69.10;100624.10;106913;1257;70051;-78
2022/04/24 06:50:46;;;;;;;38.00;25.40;;;;;;;12.71;68.17;100621.99;107046;1257;74734;-78
2022/04/24 06:53:18;;;;;;;35.20;24.10;;;;;;;12.97;69.11;100616.63;107168;1256;61914;-76
2022/04/24 06:55:49;;;;;;;36.30;22.40;;;;;;;12.90;68.79;100615.48;106794;1259;61657;-76
2022/04/24 06:58:19;;;;;;;33.70;22.50;;;;;;;13.10;67.55;100615.93;107068;1256;72350;-77
2022/04/24 07:00:49;;;;;;;35.10;23.00;;;;;;;13.08;66.82;100614.86;106808;1256;72246;-77
2022/04/24 07:03:35;;;;;;;36.70;25.10;;;;;;;12.92;67.38;100613.39;107488;1257;70244;-79
2022/04/24 07:06:04;;;;;;;33.40;23.90;;;;;;;12.82;68.22;100615.44;106937;1259;72668;-76
2022/04/24 07:08:34;;;;;;;38.20;24.60;;;;;;;12.88;68.90;100612.52;107159;1257;59609;-78
2022/04/24 07:11:03;;;;;;;34.80;25.10;;;;;;;12.98;67.68;100610.98;107272;1255;60457;-76
2022/04/24 07:13:32;;;;;;;36.10;26.50;;;;;;;12.95;67.32;100608.20;107888;1255;74059;-77
2022/04/24 07:16:00;;;;;;;35.40;25.70;;;;;;;12.95;67.32;100602.86;108161;1255;72809;-78
2022/04/24 07:18:31;;;;;;;37.20;25.70;;;;;;;13.17;66.94;100605.02;108039;1247;69804;-77
2022/04/24 07:21:02;;;;;;;35.80;24.80;;;;;;;13.04;67.48;100602.98;107323;1259;71265;-79
2022/04/24 07:23:32;;;;;;;38.40;26.20;;;;;;;13.34;67.09;100601.26;107561;1257;62946;-79
2022/04/24 07:26:01;;;;;;;37.90;25.70;;;;;;;13.26;66.29;100606.34;107423;1257;61349;-75
2022/04/24 07:28:31;;;;;;;39.00;26.40;;;;;;;13.46;67.28;100607.23;107858;1257;74543;-79
2022/04/24 07:31:00;;;;;;;36.10;26.10;;;;;;;13.51;65.59;100610.67;108259;1257;70234;-80
2022/04/24 07:33:44;;;;;;;37.60;26.30;;;;;;;13.61;65.96;100613.54;107997;1257;69219;-81
2022/04/24 07:36:15;;;;;;;39.00;25.40;;;;;;;13.90;65.84;100617.25;108116;1257;73258;-79
2022/04/24 07:38:44;;;;;;;35.30;25.00;;;;;;;14.17;65.34;100618.73;108508;1257;61047;-79
2022/04/24 07:41:14;;;;;;;38.00;25.90;;;;;;;14.31;65.15;100619.04;108529;1257;60875;-80
2022/04/24 07:43:48;;;;;;;34.80;23.00;;;;;;;14.29;64.20;100618.23;108657;1256;72959;-80
2022/04/24 07:46:18;;;;;;;33.00;23.90;;;;;;;14.23;64.01;100613.77;107080;1259;69627;-69
2022/04/24 07:48:47;;;;;;;32.10;23.00;;;;;;;14.02;63.91;100617.96;106563;1257;69938;-69
2022/04/24 07:51:15;;;;;;;33.30;22.80;;;;;;;13.99;64.00;100612.48;106674;1257;74052;-71
2022/04/24 07:53:44;;;;;;;34.30;22.80;;;;;;;13.98;64.43;100614.99;106754;1259;61222;-68
2022/04/24 07:56:13;;;;;;;28.90;20.20;;;;;;;14.32;64.69;100613.52;106662;1257;60438;-70
2022/04/24 07:58:44;;;;;;;27.40;20.10;;;;;;;14.64;62.12;100614.86;106617;1257;71566;-66
2022/04/24 08:01:16;;;;;;;32.90;21.00;;;;;;;14.51;62.46;100612.39;106559;1257;71869;-69
2022/04/24 08:03:45;;;;;;;31.00;21.50;;;;;;;14.48;63.58;100610.66;106394;1257;71255;-68
2022/04/24 08:06:15;;;;;;;25.90;18.90;;;;;;;14.69;62.88;100611.09;106470;1257;74061;-67
2022/04/24 08:08:44;;;;;;;27.40;19.90;;;;;;;14.94;62.80;100606.33;106455;1257;60251;-66
2022/04/24 08:11:13;;;;;;;28.90;20.70;;;;;;;15.14;62.17;100605.75;106388;1260;59560;-64
2022/04/24 08:13:45;;;;;;;31.30;21.80;;;;;;;15.12;61.43;100604.68;106537;1257;74753;-66
2022/04/24 08:16:14;;;;;;;36.10;22.10;;;;;;;15.24;61.97;100602.25;106545;1257;70303;-66
2022/04/24 08:18:43;;;;;;;31.50;21.30;;;;;;;15.26;61.37;100604.91;106344;1257;71259;-66
2022/04/24 08:21:13;;;;;;;28.20;20.80;;;;;;;15.35;60.96;100605.16;106613;1257;71875;-65
2022/04/24 08:23:42;;;;;;;31.30;20.80;;;;;;;15.50;61.54;100593.58;106409;1257;60497;-67
2022/04/24 08:26:11;;;;;;;30.50;21.10;;;;;;;15.64;59.94;100593.47;106438;1258;60915;-67
2022/04/24 08:28:39;;;;;;;29.70;20.80;;;;;;;15.65;59.89;100597.20;106522;1257;75340;-67
2022/04/24 08:31:08;;;;;;;21.90;15.50;;;;;;;15.87;59.79;100599.31;106543;1258;72423;-68
2022/04/24 08:33:38;;;;;;;24.30;17.10;;;;;;;16.19;58.13;100596.81;106713;1258;71198;-71
2022/04/24 08:36:07;;;;;;;22.60;16.40;;;;;;;16.13;56.88;100591.73;106437;1257;73812;-70
2022/04/24 08:38:35;;;;;;;22.30;16.20;;;;;;;16.04;57.52;100598.11;106415;1258;61413;-73
2022/04/24 08:41:05;;;;;;;25.90;17.40;;;;;;;16.14;56.92;100598.61;106651;1257;60339;-74
2022/04/24 08:43:35;;;;;;;23.10;17.10;;;;;;;16.04;57.91;100599.50;106272;1258;73787;-73
2022/04/24 08:46:05;;;;;;;23.90;17.20;;;;;;;16.05;58.59;100593.39;106853;1257;71006;-74
2022/04/24 08:48:35;;;;;;;25.00;18.10;;;;;;;16.11;58.51;100590.90;106729;1257;68816;-76
2022/04/24 08:51:05;;;;;;;25.10;17.60;;;;;;;15.92;58.10;100579.95;106439;1257;74118;-76
2022/04/24 08:53:35;;;;;;;26.70;17.60;;;;;;;16.20;58.48;100567.90;106851;1257;61106;-74
2022/04/24 08:56:04;;;;;;;26.40;17.90;;;;;;;16.20;57.92;100572.59;106730;1257;60912;-73
2022/04/24 08:58:33;;;;;;;23.60;16.80;;;;;;;16.14;56.79;100574.58;106853;1257;73434;-74
2022/04/24 09:01:02;;;;;;;22.90;15.80;;;;;;;16.55;56.48;100583.31;106676;1257;70815;-73
2022/04/24 09:03:31;;;;;;;25.80;17.00;;;;;;;16.65;55.73;100587.96;106891;1256;70385;-75
2022/04/24 09:05:59;;;;;;;25.20;17.30;;;;;;;16.26;56.45;100586.55;106858;1257;73010;-75
2022/04/24 09:08:30;;;;;;;25.50;17.70;;;;;;;16.27;57.27;100584.71;106985;1257;59643;-74
2022/04/24 09:11:23;;;;;;;22.40;14.50;;;;;;;16.37;57.03;100590.82;106571;1260;59170;-69
2022/04/24 09:16:53;;;;;;;20.70;14.70;;;;;;;16.77;55.59;100572.19;106772;1257;72260;-73
2022/04/24 09:19:25;;;;;;;20.30;12.60;;;;;;;16.83;55.05;100579.74;106873;1257;68362;-72
2022/04/24 09:22:09;;;;;;;22.30;15.70;;;;;;;17.00;54.61;100580.48;106969;1257;73966;-73
2022/04/24 09:24:42;;;;;;;20.30;15.10;;;;;;;16.84;55.11;100577.35;106972;1257;60954;-74
2022/04/24 09:27:24;;;;;;;20.60;13.90;;;;;;;16.92;55.14;100578.63;106853;1257;61364;-74
2022/04/24 09:30:12;;;;;;;17.10;12.40;;;;;;;17.30;54.57;100582.50;106859;1257;75164;-75
2022/04/24 09:32:53;;;;;;;17.90;12.40;;;;;;;17.42;54.45;100580.65;108005;1257;70491;-74
2022/04/24 09:35:30;;;;;;;15.40;11.70;;;;;;;17.45;53.23;100586.05;107214;1257;70319;-74
2022/04/24 09:38:14;;;;;;;18.30;11.60;;;;;;;17.56;52.66;100583.85;107595;1257;72258;-75
2022/04/24 09:40:47;;;;;;;16.30;11.40;;;;;;;17.68;52.17;100584.30;106598;1257;59638;-75
2022/04/24 09:43:20;;;;;;;14.20;10.30;;;;;;;18.00;51.11;100582.98;107752;1257;60038;-73
2022/04/24 09:45:54;;;;;;;17.30;12.00;;;;;;;18.06;50.12;100576.48;107539;1257;73185;-76
2022/04/24 09:48:25;;;;;;;16.50;11.20;;;;;;;17.91;50.79;100575.96;107834;1257;62233;-77
2022/04/24 09:50:56;;;;;;;16.10;11.40;;;;;;;17.70;50.40;100577.30;107039;1257;69784;-72
2022/04/24 09:53:28;;;;;;;14.70;10.00;;;;;;;17.62;51.79;100574.08;106733;1257;74609;-78
2022/04/24 09:55:59;;;;;;;16.50;11.60;;;;;;;17.92;50.81;100568.88;106857;1257;60976;-76
2022/04/24 09:58:38;;;;;;;15.80;11.30;;;;;;;18.09;50.56;100568.43;107403;1257;59661;-77
2022/04/24 10:01:13;;;;;;;15.80;11.30;;;;;;;18.31;50.90;100568.39;106982;1260;73722;-75
2022/04/24 10:03:50;;;;;;;14.60;11.00;;;;;;;18.61;50.47;100565.27;107449;1257;70740;-79
2022/04/24 10:06:26;;;;;;;12.90;9.20;;;;;;;18.85;50.21;100556.06;107491;1257;71181;-81
2022/04/24 10:09:04;;;;;;;13.40;8.10;;;;;;;18.94;49.40;100552.37;107125;1257;63756;-75
2022/04/24 10:11:35;;;;;;;11.60;7.30;;;;;;;19.05;48.33;100546.77;107051;1257;61432;-77
2022/04/24 10:14:12;;;;;;;10.50;7.80;;;;;;;19.06;46.68;100543.63;107180;1257;60946;-75
2022/04/24 10:17:15;;;;;;;10.60;6.90;;;;;;;19.04;47.32;100545.30;107199;1259;64362;-76
2022/04/24 10:20:28;;;;;;;8.10;6.20;;;;;;;18.64;45.33;100534.10;107607;1257;70220;-83
2022/04/24 10:23:45;;;;;;;10.80;7.80;;;;;;;19.05;46.16;100537.73;107662;1260;59523;-80
2022/04/24 10:26:35;;;;;;;11.60;7.90;;;;;;;19.12;45.56;100538.73;107281;1263;73413;-79
2022/04/24 10:29:59;;;;;;;12.10;7.50;;;;;;;19.05;46.45;100535.14;106645;1263;60905;-74
2022/04/24 10:32:33;;;;;;;13.50;8.40;;;;;;;19.04;45.51;100532.69;106699;1263;61008;-75
2022/04/24 10:35:20;;;;;;;12.50;8.80;;;;;;;18.97;45.41;100530.73;106958;1263;65452;-76
2022/04/24 10:37:49;;;;;;;11.10;8.40;;;;;;;19.16;44.51;100532.58;107294;1262;60852;-81
2022/04/24 10:40:20;;;;;;;11.10;7.50;;;;;;;19.46;44.02;100536.55;107049;1261;59684;-74
2022/04/24 10:42:48;;;;;;;12.10;8.20;;;;;;;19.95;43.62;100537.73;106872;1263;64426;-72
2022/04/24 10:45:20;;;;;;;11.00;7.90;;;;;;;20.40;43.05;100538.13;106579;1263;59110;-74
2022/04/24 10:47:48;;;;;;;14.10;8.70;;;;;;;20.83;44.19;100530.80;106888;1258;60707;-77
2022/04/24 10:50:21;;;;;;;12.90;8.20;;;;;;;21.20;42.53;100540.81;107588;1257;64779;-78
2022/04/24 10:52:55;;;;;;;10.70;8.40;;;;;;;20.64;41.16;100542.59;107129;1257;71636;-78
2022/04/24 10:55:27;;;;;;;10.60;8.10;;;;;;;20.73;41.09;100538.49;107352;1257;59761;-74
2022/04/24 10:58:27;;;;;;;10.90;8.10;;;;;;;21.08;41.28;100536.96;108106;1249;73162;-82
2022/04/24 11:01:47;;;;;;;9.90;7.00;;;;;;;21.12;40.49;100513.27;108742;1249;59081;-80
2022/04/24 11:04:22;;;;;;;8.60;6.60;;;;;;;21.32;39.96;100514.94;108532;1247;60840;-80
2022/04/24 11:07:21;;;;;;;14.60;7.20;;;;;;;21.94;39.48;100523.55;108118;1256;76098;-81
2022/04/24 11:13:54;;;;;;;14.50;7.70;;;;;;;22.77;37.45;100520.20;106947;1255;69258;-78
2022/04/24 11:16:56;;;;;;;9.20;7.40;;;;;;;22.81;38.52;100516.67;108728;1257;72431;-81
2022/04/24 11:19:39;;;;;;;12.60;7.20;;;;;;;23.04;37.10;100511.45;108526;1260;61416;-79
2022/04/24 11:22:12;;;;;;;9.00;7.10;;;;;;;23.32;37.44;100512.65;107644;1260;58993;-83
2022/04/24 11:25:24;;;;;;;9.90;7.30;;;;;;;23.44;36.39;100504.09;107798;1261;73600;-81
2022/04/24 11:27:58;;;;;;;8.90;6.90;;;;;;;23.79;37.14;100508.11;108293;1252;71091;-80
2022/04/24 11:30:33;;;;;;;9.10;7.00;;;;;;;23.30;36.34;100500.05;109047;1248;59898;-79
2022/04/24 11:33:07;;;;;;;8.90;7.00;;;;;;;24.06;36.10;100493.70;108366;1257;75619;-78